Bw Falcon — 9V2919 — position and weather

sailwx.info

Track history (hours):
 
Tides and Currents Weather Stations Pressure Air Temp Water Temp Dewpoint Dewpoint Depression Visibility Wind Speed Wind Dir Waves Ship Positions

Bw Falcon

Last reported at 2017-Dec-16 17:48 UTC. Time now 2017-Dec-18 01:38 UTC.
Position N 09°11' W 079°52'.

Length 183 m; draft 11.9 m.

Type: Tanker. MMSI: 566000000.

Date/timePositionNaut miles runAvg speedWind from/ knotsBaromVisibWave heightAir tempDewpointWater temp
2017-Dec-16 17:48N 09°11' W 079°52'2 8.2
2017-Dec-16 17:30N 09°12' W 079°54'2 4.2
2017-Dec-16 17:00N 09°13' W 079°56'0 0.0
2017-Dec-16 16:13N 09°13' W 079°56'0 0.0
2017-Dec-16 15:58N 09°13' W 079°56'0 0.0
2017-Dec-16 15:19N 09°13' W 079°56'0 0.0
2017-Dec-16 14:55N 09°13' W 079°56'0 0.0
2017-Dec-16 14:25N 09°13' W 079°56'0 0.1
2017-Dec-16 13:49N 09°13' W 079°56'0 1.6
2017-Dec-16 13:30N 09°13' W 079°56'3 5.1
2017-Dec-16 13:00N 09°15' W 079°55'1 1.7
2017-Dec-16 12:30N 09°16' W 079°55'0 0.4
2017-Dec-16 12:00N 09°16' W 079°55'0 0.4
2017-Dec-16 11:30N 09°17' W 079°55'0 0.8
2017-Dec-16 11:00N 09°17' W 079°55'1 1.6
2017-Dec-16 10:30N 09°18' W 079°55'1 3.0
2017-Dec-16 10:00N 09°19' W 079°55'2 3.8
2017-Dec-16 09:30N 09°21' W 079°55'2 4.1
2017-Dec-16 09:00N 09°23' W 079°55'2 4.7
2017-Dec-16 08:30N 09°26' W 079°55'1 2.5
2017-Dec-16 08:00N 09°26' W 079°56'0 0.7
2017-Dec-16 07:29N 09°26' W 079°56'0 0.0
2017-Dec-16 06:59N 09°26' W 079°56'0 0.0
2017-Dec-16 06:29N 09°26' W 079°56'0 0.0
2017-Dec-16 05:59N 09°26' W 079°56'0 0.0
2017-Dec-16 05:26N 09°26' W 079°56'0 0.0
2017-Dec-16 04:59N 09°26' W 079°56'0 0.0
2017-Dec-16 04:29N 09°26' W 079°56'0 0.0
2017-Dec-16 03:59N 09°26' W 079°56'0 0.0
2017-Dec-16 03:29N 09°26' W 079°56'0 0.0
2017-Dec-16 02:59N 09°26' W 079°56'0 0.0
2017-Dec-16 02:29N 09°26' W 079°56'0 0.0
2017-Dec-16 01:59N 09°26' W 079°56'0 0.0
2017-Dec-16 01:26N 09°26' W 079°56'0 0.0
2017-Dec-16 00:59N 09°26' W 079°56'0 0.0
2017-Dec-16 00:29N 09°26' W 079°56'0 0.0
2017-Dec-15 23:59N 09°26' W 079°56'0 0.0
2017-Dec-15 23:29N 09°26' W 079°56'0 0.0
2017-Dec-15 22:59N 09°26' W 079°56'0 0.1
2017-Dec-15 22:29N 09°26' W 079°56'1 1.0
2017-Dec-15 21:59N 09°26' W 079°56'0 0.2
2017-Dec-15 21:29N 09°26' W 079°56'0 0.8
2017-Dec-15 20:59N 09°26' W 079°56'0 0.2
2017-Dec-15 20:29N 09°26' W 079°56'0 0.2
2017-Dec-15 20:00N 09°26' W 079°56'1 2.8
2017-Dec-15 19:30N 09°27' W 079°55'2 4.4
2017-Dec-15 19:00N 09°29' W 079°54'3 5.1
2017-Dec-15 18:30N 09°31' W 079°53'  
2017-Dec-10 11:05N 29°21' W 094°42'113.2
2017-Dec-10 11:00N 29°21' W 094°43'1210.4
2017-Dec-10 09:49N 29°30' W 094°52'310.5
2017-Dec-10 09:30N 29°33' W 094°54'510.5
2017-Dec-10 09:00N 29°37' W 094°57'5 9.2
2017-Dec-10 08:30N 29°42' W 094°59'3 6.4
2017-Dec-10 08:00N 29°44' W 095°02'3 6.6
2017-Dec-10 07:30N 29°46' W 095°05'3 5.9
2017-Dec-10 07:00N 29°44' W 095°08'1 1.1
2017-Dec-10 06:30N 29°44' W 095°08'  
2017-Dec-07 19:49N 29°44' W 095°08'0 0.3
2017-Dec-07 19:30N 29°44' W 095°08'1 1.2
2017-Dec-07 19:00N 29°44' W 095°08'3 5.8
2017-Dec-07 18:30N 29°46' W 095°05'4 7.8
2017-Dec-07 18:01N 29°43' W 095°01'4 7.7
2017-Dec-07 17:30N 29°40' W 094°59'611.5
2017-Dec-07 17:01N 29°35' W 094°56'510.8
2017-Dec-07 16:30N 29°31' W 094°53'511.0
2017-Dec-07 16:00N 29°26' W 094°50'  
Track history (hours):
 
Tides and Currents Weather Stations Pressure Air Temp Water Temp Dewpoint Dewpoint Depression Visibility Wind Speed Wind Dir Waves Ship Positions

Bw Falcon

Last reported at 2017-Dec-16 17:48 UTC. Time now 2017-Dec-18 01:38 UTC.
Position N 09°11' W 079°52'.

Length 183 m; draft 11.9 m.

Type: Tanker. MMSI: 566000000.

Date/timePositionNaut miles runAvg speedWind from/ knotsBaromVisibWave heightAir tempDewpointWater temp
2017-Dec-16 17:48N 09°11' W 079°52'2 8.2
2017-Dec-16 17:30N 09°12' W 079°54'2 4.2
2017-Dec-16 17:00N 09°13' W 079°56'0 0.0
2017-Dec-16 16:13N 09°13' W 079°56'0 0.0
2017-Dec-16 15:58N 09°13' W 079°56'0 0.0
2017-Dec-16 15:19N 09°13' W 079°56'0 0.0
2017-Dec-16 14:55N 09°13' W 079°56'0 0.0
2017-Dec-16 14:25N 09°13' W 079°56'0 0.1
2017-Dec-16 13:49N 09°13' W 079°56'0 1.6
2017-Dec-16 13:30N 09°13' W 079°56'3 5.1
2017-Dec-16 13:00N 09°15' W 079°55'1 1.7
2017-Dec-16 12:30N 09°16' W 079°55'0 0.4
2017-Dec-16 12:00N 09°16' W 079°55'0 0.4
2017-Dec-16 11:30N 09°17' W 079°55'0 0.8
2017-Dec-16 11:00N 09°17' W 079°55'1 1.6
2017-Dec-16 10:30N 09°18' W 079°55'1 3.0
2017-Dec-16 10:00N 09°19' W 079°55'2 3.8
2017-Dec-16 09:30N 09°21' W 079°55'2 4.1
2017-Dec-16 09:00N 09°23' W 079°55'2 4.7
2017-Dec-16 08:30N 09°26' W 079°55'1 2.5
2017-Dec-16 08:00N 09°26' W 079°56'0 0.7
2017-Dec-16 07:29N 09°26' W 079°56'0 0.0
2017-Dec-16 06:59N 09°26' W 079°56'0 0.0
2017-Dec-16 06:29N 09°26' W 079°56'0 0.0
2017-Dec-16 05:59N 09°26' W 079°56'0 0.0
2017-Dec-16 05:26N 09°26' W 079°56'0 0.0
2017-Dec-16 04:59N 09°26' W 079°56'0 0.0
2017-Dec-16 04:29N 09°26' W 079°56'0 0.0
2017-Dec-16 03:59N 09°26' W 079°56'0 0.0
2017-Dec-16 03:29N 09°26' W 079°56'0 0.0
2017-Dec-16 02:59N 09°26' W 079°56'0 0.0
2017-Dec-16 02:29N 09°26' W 079°56'0 0.0
2017-Dec-16 01:59N 09°26' W 079°56'0 0.0
2017-Dec-16 01:26N 09°26' W 079°56'0 0.0
2017-Dec-16 00:59N 09°26' W 079°56'0 0.0
2017-Dec-16 00:29N 09°26' W 079°56'0 0.0
2017-Dec-15 23:59N 09°26' W 079°56'0 0.0
2017-Dec-15 23:29N 09°26' W 079°56'0 0.0
2017-Dec-15 22:59N 09°26' W 079°56'0 0.1
2017-Dec-15 22:29N 09°26' W 079°56'1 1.0
2017-Dec-15 21:59N 09°26' W 079°56'0 0.2
2017-Dec-15 21:29N 09°26' W 079°56'0 0.8
2017-Dec-15 20:59N 09°26' W 079°56'0 0.2
2017-Dec-15 20:29N 09°26' W 079°56'0 0.2
2017-Dec-15 20:00N 09°26' W 079°56'1 2.8
2017-Dec-15 19:30N 09°27' W 079°55'2 4.4
2017-Dec-15 19:00N 09°29' W 079°54'3 5.1
2017-Dec-15 18:30N 09°31' W 079°53'  
2017-Dec-10 11:05N 29°21' W 094°42'113.2
2017-Dec-10 11:00N 29°21' W 094°43'1210.4
2017-Dec-10 09:49N 29°30' W 094°52'310.5
2017-Dec-10 09:30N 29°33' W 094°54'510.5
2017-Dec-10 09:00N 29°37' W 094°57'5 9.2
2017-Dec-10 08:30N 29°42' W 094°59'3 6.4
2017-Dec-10 08:00N 29°44' W 095°02'3 6.6
2017-Dec-10 07:30N 29°46' W 095°05'3 5.9
2017-Dec-10 07:00N 29°44' W 095°08'1 1.1
2017-Dec-10 06:30N 29°44' W 095°08'  
2017-Dec-07 19:49N 29°44' W 095°08'0 0.3
2017-Dec-07 19:30N 29°44' W 095°08'1 1.2
2017-Dec-07 19:00N 29°44' W 095°08'3 5.8
2017-Dec-07 18:30N 29°46' W 095°05'4 7.8
2017-Dec-07 18:01N 29°43' W 095°01'4 7.7
2017-Dec-07 17:30N 29°40' W 094°59'611.5
2017-Dec-07 17:01N 29°35' W 094°56'510.8
2017-Dec-07 16:30N 29°31' W 094°53'511.0
2017-Dec-07 16:00N 29°26' W 094°50'  

Dump ship's entire track history